»·PEaware :: DAL580 KRNO-KOAK

DAL580 :: KRNO-KOAK

FLIGHT INFORMATION

Flight Status: Arrived
Operator:
Delta Air Lines
More flights by this operator :: More flights under this callsign
Pilot: Kevin M. (7)
Aircraft: BOEING 737-800
(B738)
More flights by this aircraft type
Origin: KRNO Reno/Tahoe Intl
United States
Destination: KOAK Metro Oakland Intl
United States
More flights between these airports :: More routes between these airports
Route: ZEFFR6 MRLET OAKES2
File this flight plan on PilotEdge
Remarks:
Altitude:
(Current/Filed)
22,000ft
Speed:
(Current/Filed)
468kts
Departed: 28-Aug-19 01:37 PM
Arrived: 28-Aug-19 02:12 PM
Distance/Time
Traveled:
157nm/0:35
Distance/Time
To Go:
Arrived

Flight Plot

Page will automatically refresh every two minutes.

Flight plan parsing failed; only flown route is shown


Map Options




Map Legend


Flown Route
Filed Route
Departure Airport
Arrival Airport
Navaid (VOR, NDB)
Fix

Horizontal Profiles

Position Reports

Time Latitude Longitude Heading Altitude Ground
Speed
28-Aug-19 13:21 39.504829 -119.772255 286 4413ft 0kts
28-Aug-19 13:22 39.504829 -119.772255 286 4413ft 0kts
28-Aug-19 13:23 39.504829 -119.772255 286 4413ft 0kts
28-Aug-19 13:24 39.504829 -119.772255 286 4413ft 0kts
28-Aug-19 13:25 39.504829 -119.772255 286 4413ft 0kts
28-Aug-19 13:26 39.504829 -119.772255 286 4413ft 0kts
28-Aug-19 13:27 39.504829 -119.772255 286 4413ft 0kts
28-Aug-19 13:28 39.504818 -119.772206 286 4413ft 2kts
28-Aug-19 13:29 39.504670 -119.771527 321 4412ft 1kts
28-Aug-19 13:30 39.504542 -119.771501 1 4412ft 0kts
28-Aug-19 13:31 39.504542 -119.771501 1 4412ft 0kts
28-Aug-19 13:32 39.505646 -119.771504 0 4413ft 13kts
28-Aug-19 13:33 39.511381 -119.771491 359 4418ft 18kts
28-Aug-19 13:34 39.513735 -119.770667 87 4420ft 5kts
28-Aug-19 13:35 39.513748 -119.770023 89 4420ft 12kts
28-Aug-19 13:36 39.497971 -119.769272 179 4410ft 159kts
28-Aug-19 13:37 39.449828 -119.769134 180 6146ft 193kts
28-Aug-19 13:38 39.386968 -119.768976 180 7179ft 267kts
28-Aug-19 13:39 39.306585 -119.771671 191 9764ft 296kts
28-Aug-19 13:40 39.218341 -119.798671 193 11151ft 362kts
28-Aug-19 13:41 39.111999 -119.829413 193 12860ft 408kts
28-Aug-19 13:42 38.999438 -119.862522 193 15823ft 421kts
28-Aug-19 13:43 38.884498 -119.896219 192 18695ft 432kts
28-Aug-19 13:44 38.764878 -119.931147 192 21344ft 446kts
28-Aug-19 13:45 38.646251 -119.965650 193 22255ft 425kts
28-Aug-19 13:46 38.530740 -119.999143 193 22265ft 426kts
28-Aug-19 13:47 38.414946 -120.032605 193 22240ft 426kts
28-Aug-19 13:48 38.299531 -120.066465 197 22196ft 425kts
28-Aug-19 13:49 38.193835 -120.134192 209 22107ft 425kts
28-Aug-19 13:50 38.093549 -120.213119 210 22014ft 425kts
28-Aug-19 13:51 37.991708 -120.289461 210 22006ft 425kts
28-Aug-19 13:52 37.896133 -120.374501 221 21995ft 406kts
28-Aug-19 13:53 37.854182 -120.493992 259 21988ft 384kts
28-Aug-19 13:54 37.834823 -120.626758 255 21981ft 382kts
28-Aug-19 13:55 37.812388 -120.758618 255 21973ft 382kts
28-Aug-19 13:56 37.789831 -120.889995 254 21961ft 381kts
28-Aug-19 13:57 37.767056 -121.020710 255 21957ft 380kts
28-Aug-19 13:58 37.744470 -121.150426 255 21961ft 377kts
28-Aug-19 13:59 37.722055 -121.279790 255 14260ft 486kts
28-Aug-19 14:00 37.692933 -121.396064 248 12528ft 326kts
28-Aug-19 14:01 37.660894 -121.515196 252 7270ft 350kts
28-Aug-19 14:02 37.632847 -121.622640 253 5036ft 299kts
28-Aug-19 14:03 37.615217 -121.701493 262 6720ft 259kts
28-Aug-19 14:04 37.608461 -121.796240 265 5832ft 266kts
28-Aug-19 14:05 37.606760 -121.887754 271 4835ft 257kts
28-Aug-19 14:06 37.606773 -121.980337 269 4458ft 265kts
28-Aug-19 14:07 37.610378 -122.072955 279 3450ft 275kts
28-Aug-19 14:08 37.656243 -122.136770 308 1695ft 241kts
28-Aug-19 14:09 37.686899 -122.192286 308 538ft 151kts
28-Aug-19 14:10 37.709274 -122.225914 309 13ft 54kts
28-Aug-19 14:11 37.713816 -122.228998 130 13ft 26kts
28-Aug-19 14:12 37.712900 -122.222385 44 14ft 24kts
28-Aug-19 14:13 37.715522 -122.218848 52 14ft 0kts
28-Aug-19 14:14 37.714684 -122.216900 144 14ft 28kts
28-Aug-19 14:15 37.712805 -122.215980 122 14ft 0kts

Navigation Log

Ident Type
Flight plan parsing failed, navigation log unavailable